Pays
Station

 

Conditions  météo  pour  Shemya, Eareckson As  -  Etats-Unis    Etats-Unis

  
1 °C
    
 
 

METAR pour Shemya, Eareckson As :

PASY 212126Z 05027G32KT 7SM FEW024 OVC041 01/M03 A2931 RMK SNB11E26

 

Voici le bulletin pour Shemya, Eareckson As - Etats-Unis.
 
Le bulletin a été fait il y a 33 minutes, à 21:26 UTC .
Le vent soufflait à la vitesse de 13.9 mètres par seconde avec des rafales jusqu'à 16.5 mètres par seconde de Nord-est (050°).
 
La température était de 1 °C, avec un point de rosée à -3 °C.
La température ressentie était de -7 °C.
 
La pression atmosphérique était de 993 hPa.
L'humidité relative était de 74.6%.
 
Il y avait 1 à 2/8ème de nébulosité à une hauteur de 732 mètres. Le ciel était nuageux à partir d'une hauteur de 1250 mètres
 
La visibilité globale était de 11.3 kilomètres.
 

 
 
 

Pays :   A   B   C   D   E   F   G   H   I   J   K   L   M   N   O   P   Q   R   S   T   U   V   W   Y   Z

 

Partenaires :  Info Météo avec Met'info
Météo Marine avec MeteoMarine.net
Infos Site  |  Infos Légales  |  Crédits  |  Confidentialité
Contactez-nous  |  Ajouter aux favoris
© 2013-2019 METAR - Tous droits réservés